Time;durP1;ratioP1;P1;durP2;ratioP2;P2;SDS_P1;SDS_P2;PMS_P1;PMS_P2;Temp;Humidity;BMP_temperature;BMP_pressure;BME280_temperature;BME280_humidity;BME280_pressure;Samples;Min_cycle;Max_cycle;Signal;HPM_P1;HPM_P2
2022/01/14 00:00:10;;;;;;;40.80;20.30;;;;;;;1.18;82.64;99836.74;108169;1274;25159;-77
2022/01/14 00:02:37;;;;;;;42.50;19.50;;;;;;;1.17;82.79;99838.29;108228;1273;22604;-77
2022/01/14 00:05:04;;;;;;;49.80;23.90;;;;;;;1.14;82.46;99832.16;108216;1274;22561;-75
2022/01/14 00:07:31;;;;;;;43.80;20.40;;;;;;;1.12;82.37;99828.56;108218;1274;23345;-75
2022/01/14 00:09:58;;;;;;;53.80;24.60;;;;;;;1.12;82.20;99827.71;108227;1274;24218;-75
2022/01/14 00:12:28;;;;;;;34.60;19.90;;;;;;;1.17;82.10;99822.17;108217;1274;22595;-76
2022/01/14 00:15:23;;;;;;;38.00;19.70;;;;;;;1.20;82.47;99823.34;108260;1274;22575;-75
2022/01/14 00:17:48;;;;;;;34.30;18.20;;;;;;;1.21;82.72;99822.83;108218;1274;22645;-77
2022/01/14 00:20:14;;;;;;;39.50;19.90;;;;;;;1.14;82.56;99817.39;108232;1274;25117;-75
2022/01/14 00:22:41;;;;;;;33.90;16.60;;;;;;;1.12;82.37;99817.06;108212;1274;22550;-75
2022/01/14 00:33:16;;;;;;;35.60;17.90;;;;;;;1.13;82.78;99809.52;108196;1274;22600;-76
2022/01/14 00:35:43;;;;;;;;;;;;;;;1.08;82.79;99812.81;108274;1274;22535;-76
2022/01/14 00:38:11;;;;;;;41.50;20.50;;;;;;;1.04;82.41;99818.67;108237;1274;22568;-77
2022/01/14 00:40:38;;;;;;;36.90;18.70;;;;;;;1.01;82.34;99818.35;108196;1274;22582;-75
2022/01/14 00:43:06;;;;;;;38.10;19.60;;;;;;;1.01;82.08;99829.16;108249;1274;22699;-75
2022/01/14 00:45:33;;;;;;;34.80;17.10;;;;;;;1.00;82.05;99833.45;108229;1274;22660;-76
2022/01/14 00:48:02;;;;;;;45.90;24.00;;;;;;;1.04;82.16;99827.77;108517;1274;22721;-75
2022/01/14 00:50:29;;;;;;;40.50;21.50;;;;;;;1.05;82.51;99819.88;108256;1274;22579;-75
2022/01/14 00:52:56;;;;;;;33.80;19.40;;;;;;;1.07;82.63;99811.27;108254;1274;23302;-76
2022/01/14 00:55:28;;;;;;;41.20;21.30;;;;;;;1.05;82.85;99808.90;108189;1274;22591;-74
2022/01/14 01:00:29;;;;;;;37.50;17.90;;;;;;;1.00;82.44;99810.46;108206;1274;22658;-75
2022/01/14 01:02:56;;;;;;;31.20;16.00;;;;;;;0.98;82.35;99808.10;108200;1274;22569;-75
2022/01/14 01:05:23;;;;;;;46.50;22.40;;;;;;;0.96;82.42;99803.30;108228;1274;22567;-74
2022/01/14 01:08:09;;;;;;;46.10;22.70;;;;;;;1.02;82.09;99804.97;108206;1274;23029;-75
2022/01/14 01:10:46;;;;;;;44.10;22.00;;;;;;;1.04;82.28;99820.74;108208;1274;22639;-75
2022/01/14 01:13:26;;;;;;;40.20;20.70;;;;;;;1.06;82.85;99814.05;108206;1274;22613;-74
2022/01/14 01:15:54;;;;;;;35.20;19.40;;;;;;;1.03;82.89;99815.27;108068;1274;226334;-74
2022/01/14 01:18:22;;;;;;;38.70;20.40;;;;;;;1.00;82.73;99817.49;108246;1274;22571;-76
2022/01/14 01:20:50;;;;;;;35.90;18.20;;;;;;;1.00;82.35;99816.98;108249;1274;22550;-75
2022/01/14 01:23:18;;;;;;;36.10;17.60;;;;;;;0.99;82.07;99817.33;108204;1274;22567;-75
2022/01/14 01:25:51;;;;;;;41.60;21.60;;;;;;;0.98;81.91;99818.91;108239;1274;22587;-76
2022/01/14 01:28:18;;;;;;;44.00;21.50;;;;;;;1.02;81.94;99816.46;108249;1274;22767;-75
2022/01/14 01:30:50;;;;;;;38.60;19.60;;;;;;;1.05;82.43;99820.73;108226;1274;22572;-77
2022/01/14 01:33:18;;;;;;;37.50;18.40;;;;;;;1.08;82.72;99828.95;108211;1274;22564;-79
2022/01/14 01:35:46;;;;;;;37.20;19.60;;;;;;;1.05;82.66;99833.77;108195;1274;22559;-79
2022/01/14 01:38:16;;;;;;;40.00;20.20;;;;;;;1.02;82.41;99827.44;108391;1274;22571;-77
2022/01/14 01:40:46;;;;;;;39.60;19.10;;;;;;;1.00;82.42;99822.65;108223;1274;22568;-78
2022/01/14 01:43:14;;;;;;;36.10;20.60;;;;;;;1.02;82.12;99818.52;108209;1274;24229;-80
2022/01/14 01:45:44;;;;;;;40.60;21.10;;;;;;;1.06;82.02;99820.55;108197;1274;22601;-79
2022/01/14 01:48:11;;;;;;;40.80;21.10;;;;;;;1.07;82.39;99824.32;108196;1274;24440;-79
2022/01/14 01:50:38;;;;;;;35.70;16.90;;;;;;;1.08;82.61;99820.52;108238;1274;24266;-79
2022/01/14 01:53:05;;;;;;;36.70;19.80;;;;;;;1.08;82.74;99813.84;108230;1274;22570;-78
2022/01/14 01:55:33;;;;;;;32.90;17.60;;;;;;;1.08;82.47;99806.80;108188;1274;22589;-79
2022/01/14 01:58:00;;;;;;;31.20;17.40;;;;;;;1.06;82.42;99805.29;108208;1274;23546;-79
2022/01/14 02:00:28;;;;;;;34.00;18.90;;;;;;;1.05;82.13;99798.09;108228;1274;22607;-76
2022/01/14 02:02:57;;;;;;;39.70;21.00;;;;;;;1.05;82.17;99792.08;108243;1274;22560;-75
2022/01/14 02:05:25;;;;;;;44.40;22.10;;;;;;;1.12;82.02;99790.30;108261;1274;22561;-75
2022/01/14 02:07:53;;;;;;;41.30;21.90;;;;;;;1.15;82.58;99794.91;108203;1274;22728;-75
2022/01/14 02:10:22;;;;;;;33.20;19.30;;;;;;;1.17;82.79;99799.34;108168;1275;22571;-76
2022/01/14 02:12:52;;;;;;;33.90;19.10;;;;;;;1.16;82.89;99793.52;108258;1274;22573;-75
2022/01/14 02:23:25;;;;;;;43.70;21.90;;;;;;;1.13;81.96;99787.38;108201;1274;23351;-74
2022/01/14 02:25:53;;;;;;;47.40;22.00;;;;;;;1.16;82.17;99782.89;108301;1274;22694;-74
2022/01/14 02:28:20;;;;;;;43.00;20.60;;;;;;;1.20;82.35;99780.96;108300;1274;23197;-74
2022/01/14 02:30:49;;;;;;;36.90;18.50;;;;;;;1.22;82.74;99773.75;108237;1274;22562;-74
2022/01/14 02:33:18;;;;;;;40.30;19.60;;;;;;;1.20;82.74;99777.53;108237;1274;22685;-76
2022/01/14 02:35:48;;;;;;;35.30;19.20;;;;;;;1.21;82.48;99773.58;108187;1274;22578;-75
2022/01/14 02:38:17;;;;;;;35.40;19.20;;;;;;;1.20;82.29;99764.15;108232;1274;22557;-75
2022/01/14 02:40:46;;;;;;;32.50;16.40;;;;;;;1.20;81.95;99760.55;108233;1274;24399;-77
2022/01/14 02:43:14;;;;;;;44.50;20.10;;;;;;;1.20;81.78;99759.52;108247;1274;22554;-76
2022/01/14 02:45:49;;;;;;;45.90;22.20;;;;;;;1.22;81.80;99763.45;108251;1274;22572;-75
2022/01/14 02:48:20;;;;;;;37.10;20.20;;;;;;;1.25;82.12;99753.81;108216;1274;22551;-75
2022/01/14 02:56:08;;;;;;;29.90;17.60;;;;;;;1.23;82.15;99751.61;108221;1274;25375;-76
2022/01/14 02:58:37;;;;;;;32.60;17.90;;;;;;;1.22;81.90;99747.49;108198;1274;25245;-75
2022/01/14 03:01:11;;;;;;;33.50;17.30;;;;;;;1.19;81.95;99751.29;108206;1274;25060;-74
2022/01/14 03:03:40;;;;;;;38.50;20.80;;;;;;;1.20;81.80;99747.50;108206;1274;23152;-77
2022/01/14 03:06:07;;;;;;;38.50;20.10;;;;;;;1.23;81.81;99748.86;108719;1274;23530;-75
2022/01/14 03:08:34;;;;;;;35.30;18.80;;;;;;;1.25;82.28;99746.77;108233;1274;22545;-75
2022/01/14 03:11:08;;;;;;;30.30;15.40;;;;;;;1.28;82.70;99744.67;108767;1274;22598;-75
2022/01/14 03:13:36;;;;;;;34.30;17.40;;;;;;;1.27;82.39;99734.73;108189;1274;22837;-75
2022/01/14 03:16:04;;;;;;;35.30;18.90;;;;;;;1.24;82.21;99729.63;108199;1274;22545;-77
2022/01/14 03:18:45;;;;;;;28.70;15.30;;;;;;;1.23;82.12;99732.73;108219;1274;24297;-76
2022/01/14 03:21:14;;;;;;;31.40;17.50;;;;;;;1.21;81.91;99734.45;108208;1274;25313;-76
2022/01/14 03:23:48;;;;;;;38.90;21.30;;;;;;;1.22;81.63;99741.66;108213;1274;27837;-78
2022/01/14 03:26:20;;;;;;;43.30;22.50;;;;;;;1.24;81.62;99741.98;108241;1274;25280;-75
2022/01/14 03:28:48;;;;;;;36.40;19.80;;;;;;;1.26;82.16;99743.16;108213;1274;22651;-77
2022/01/14 03:31:15;;;;;;;31.50;18.90;;;;;;;1.28;82.30;99740.55;108219;1274;22574;-75
2022/01/14 03:33:42;;;;;;;33.40;18.60;;;;;;;1.24;82.25;99734.10;108233;1274;27812;-75
2022/01/14 03:36:10;;;;;;;33.50;18.60;;;;;;;1.22;82.10;99730.67;108228;1274;22541;-74
2022/01/14 03:38:37;;;;;;;31.10;16.60;;;;;;;1.21;82.05;99729.65;108205;1274;22593;-75
2022/01/14 03:41:05;;;;;;;31.50;17.80;;;;;;;1.19;81.83;99728.81;108225;1274;24205;-76
2022/01/14 03:43:33;;;;;;;42.20;20.80;;;;;;;1.17;81.54;99720.09;108255;1274;22560;-74
2022/01/14 03:46:00;;;;;;;38.90;20.10;;;;;;;1.21;81.63;99708.20;108213;1274;22630;-75
2022/01/14 03:48:27;;;;;;;35.60;19.00;;;;;;;1.26;82.01;99707.11;108227;1274;22574;-77
2022/01/14 03:50:53;;;;;;;33.10;17.30;;;;;;;1.23;82.03;99707.51;108206;1274;22546;-75
2022/01/14 03:53:21;;;;;;;32.70;17.20;;;;;;;1.21;82.08;99706.83;108221;1274;22568;-75
2022/01/14 03:55:48;;;;;;;25.90;13.40;;;;;;;1.18;81.98;99706.52;108247;1274;22711;-77
2022/01/14 03:58:15;;;;;;;32.40;15.60;;;;;;;1.17;81.64;99704.30;108216;1274;22669;-75
2022/01/14 04:00:42;;;;;;;34.00;16.10;;;;;;;1.19;81.73;99704.09;108216;1274;22617;-75
2022/01/14 04:03:09;;;;;;;34.30;16.00;;;;;;;1.18;82.00;99703.59;108227;1274;22550;-75
2022/01/14 04:05:36;;;;;;;29.50;15.00;;;;;;;1.21;82.04;99703.05;108232;1274;22556;-76
2022/01/14 04:08:04;;;;;;;29.80;15.50;;;;;;;1.18;82.28;99700.15;108220;1274;22576;-76
2022/01/14 04:10:31;;;;;;;30.60;15.20;;;;;;;1.16;81.93;99704.83;108235;1274;22590;-75
2022/01/14 04:13:05;;;;;;;24.20;13.20;;;;;;;1.15;81.78;99699.69;108223;1274;22561;-76
2022/01/14 04:15:44;;;;;;;28.20;13.80;;;;;;;1.13;81.70;99697.30;108219;1274;22557;-75
2022/01/14 04:18:15;;;;;;;37.40;17.90;;;;;;;1.15;81.90;99697.80;108234;1274;22582;-75
2022/01/14 04:20:48;;;;;;;31.00;16.70;;;;;;;1.15;82.11;99697.47;108215;1274;22541;-76
2022/01/14 04:23:18;;;;;;;32.00;16.60;;;;;;;1.16;82.28;99690.77;108243;1274;25125;-75
2022/01/14 04:25:51;;;;;;;31.00;14.80;;;;;;;1.13;82.29;99683.75;108244;1274;22627;-75
2022/01/14 04:28:19;;;;;;;29.10;15.70;;;;;;;1.11;81.97;99677.24;108234;1274;22611;-76
2022/01/14 04:30:47;;;;;;;27.50;14.70;;;;;;;1.08;81.81;99679.15;108229;1274;22580;-74
2022/01/14 04:33:14;;;;;;;32.90;16.50;;;;;;;1.05;81.84;99676.45;108215;1274;23118;-77
2022/01/14 04:35:41;;;;;;;36.60;18.90;;;;;;;1.04;81.58;99671.33;108207;1274;22557;-75
2022/01/14 04:38:08;;;;;;;33.20;16.50;;;;;;;1.08;81.88;99669.20;108234;1274;23221;-77
2022/01/14 04:40:35;;;;;;;40.00;18.40;;;;;;;1.11;82.13;99670.90;108227;1274;22738;-75
2022/01/14 04:43:02;;;;;;;32.10;15.40;;;;;;;1.10;82.11;99664.55;108212;1274;22567;-75
2022/01/14 04:45:42;;;;;;;30.60;16.60;;;;;;;1.11;82.35;99655.29;108219;1274;22587;-76
2022/01/14 04:48:11;;;;;;;26.30;14.10;;;;;;;1.10;82.31;99656.67;108222;1274;22671;-75
2022/01/14 04:50:39;;;;;;;33.50;18.70;;;;;;;1.08;81.97;99661.50;108209;1274;25308;-75
2022/01/14 04:53:09;;;;;;;36.20;15.10;;;;;;;1.02;81.91;99663.79;108219;1274;24963;-75
2022/01/14 04:55:37;;;;;;;31.80;16.10;;;;;;;1.02;81.67;99662.59;108238;1274;22554;-75
2022/01/14 04:58:05;;;;;;;36.00;18.00;;;;;;;1.00;81.71;99653.16;108235;1274;22560;-77
2022/01/14 05:00:32;;;;;;;44.50;19.60;;;;;;;1.05;81.83;99653.30;108211;1274;22565;-76
2022/01/14 05:02:59;;;;;;;39.90;18.60;;;;;;;1.07;82.08;99644.52;108235;1274;24407;-75
2022/01/14 05:05:29;;;;;;;31.00;17.00;;;;;;;1.07;82.24;99644.17;108223;1274;23147;-75
2022/01/14 05:07:57;;;;;;;38.70;19.50;;;;;;;1.04;82.33;99639.94;108244;1274;25266;-75
2022/01/14 05:12:54;;;;;;;33.70;16.90;;;;;;;0.98;81.97;99627.47;108217;1274;22773;-76
2022/01/14 05:15:21;;;;;;;29.60;14.40;;;;;;;0.94;81.99;99638.31;108224;1274;22622;-75
2022/01/14 05:17:50;;;;;;;39.70;19.30;;;;;;;0.94;82.05;99642.95;108213;1274;22610;-75
2022/01/14 05:20:18;;;;;;;41.80;19.50;;;;;;;0.97;81.97;99643.61;108234;1273;25312;-74
2022/01/14 05:22:46;;;;;;;40.00;19.40;;;;;;;0.99;82.23;99641.52;108211;1274;22577;-75
2022/01/14 05:25:14;;;;;;;37.20;17.60;;;;;;;1.04;82.69;99628.43;108207;1274;22609;-75
2022/01/14 05:27:43;;;;;;;31.10;15.40;;;;;;;1.01;82.76;99625.20;108219;1274;22560;-75
2022/01/14 05:30:13;;;;;;;33.50;16.70;;;;;;;0.98;82.66;99628.33;108221;1274;22550;-75
2022/01/14 05:32:49;;;;;;;35.70;17.50;;;;;;;0.96;82.36;99627.49;108226;1274;22564;-75
2022/01/14 05:35:18;;;;;;;30.80;15.40;;;;;;;0.91;82.42;99625.98;108197;1274;22569;-75
2022/01/14 05:37:45;;;;;;;30.00;14.10;;;;;;;0.89;82.22;99622.77;108256;1274;22622;-75
2022/01/14 05:40:13;;;;;;;29.40;12.40;;;;;;;0.87;82.17;99620.56;108234;1274;25461;-76
2022/01/14 05:42:41;;;;;;;32.80;14.70;;;;;;;0.89;82.20;99616.94;108200;1274;22601;-75
2022/01/14 05:45:10;;;;;;;38.00;17.10;;;;;;;0.89;82.40;99614.87;108262;1274;24216;-75
2022/01/14 05:47:39;;;;;;;32.50;13.80;;;;;;;0.90;82.70;99621.39;108268;1274;22499;-76
2022/01/14 05:50:13;;;;;;;25.10;12.80;;;;;;;0.87;82.87;99615.24;108281;1274;23067;-78
2022/01/14 05:52:41;;;;;;;24.70;10.90;;;;;;;0.86;82.69;99602.22;108304;1274;22580;-76
2022/01/14 05:55:10;;;;;;;36.70;15.90;;;;;;;0.81;82.42;99599.19;108292;1274;22593;-75
2022/01/14 05:57:38;;;;;;;29.30;13.50;;;;;;;0.80;82.18;99602.45;108221;1274;24494;-77
2022/01/14 06:00:15;;;;;;;29.00;13.30;;;;;;;0.79;82.02;99611.90;108192;1274;22576;-75
2022/01/14 06:02:42;;;;;;;32.20;15.10;;;;;;;0.82;81.98;99613.06;108256;1274;23466;-78
2022/01/14 06:05:09;;;;;;;35.20;15.70;;;;;;;0.83;82.24;99610.65;108243;1274;25551;-77
2022/01/14 06:07:35;;;;;;;31.50;15.30;;;;;;;0.85;82.54;99615.26;108250;1274;22572;-78
2022/01/14 06:10:03;;;;;;;35.70;16.00;;;;;;;0.81;82.46;99620.63;108147;1274;24470;-76
2022/01/14 06:12:30;;;;;;;35.90;16.70;;;;;;;0.81;82.26;99624.05;108231;1274;25381;-76
2022/01/14 06:14:57;;;;;;;34.30;17.10;;;;;;;0.79;82.11;99627.52;108257;1274;22591;-75
2022/01/14 06:17:24;;;;;;;42.10;18.00;;;;;;;0.76;82.15;99629.41;108275;1274;22913;-76
2022/01/14 06:19:51;;;;;;;40.70;18.10;;;;;;;0.80;82.19;99630.91;108249;1274;22632;-77
2022/01/14 06:22:18;;;;;;;39.80;18.90;;;;;;;0.83;82.39;99638.60;108220;1274;22564;-78
2022/01/14 06:24:45;;;;;;;34.50;17.70;;;;;;;0.84;82.55;99642.02;108251;1274;22552;-75
2022/01/14 06:27:12;;;;;;;37.10;16.00;;;;;;;0.82;82.71;99637.92;108212;1274;22586;-76
2022/01/14 06:29:39;;;;;;;33.30;16.00;;;;;;;0.84;82.17;99633.61;108235;1274;22570;-78
2022/01/14 06:32:06;;;;;;;34.50;16.60;;;;;;;0.79;82.18;99632.14;108248;1274;22609;-77
2022/01/14 06:34:33;;;;;;;32.60;16.50;;;;;;;0.78;81.96;99631.46;108235;1274;22984;-78
2022/01/14 06:37:00;;;;;;;34.80;16.30;;;;;;;0.76;81.92;99633.19;108240;1274;22550;-78
2022/01/14 06:39:27;;;;;;;39.10;17.70;;;;;;;0.79;81.70;99630.93;108237;1274;22694;-76
2022/01/14 06:41:54;;;;;;;35.50;15.60;;;;;;;0.80;81.96;99636.08;108239;1274;22553;-75
2022/01/14 06:44:21;;;;;;;30.70;13.40;;;;;;;0.82;82.37;99630.89;108233;1274;22560;-75
2022/01/14 06:46:48;;;;;;;29.80;14.20;;;;;;;0.83;82.24;99627.11;108192;1273;22575;-75
2022/01/14 06:49:15;;;;;;;32.60;16.90;;;;;;;0.79;82.41;99640.02;108214;1274;22593;-79
2022/01/14 06:51:41;;;;;;;33.70;15.90;;;;;;;0.78;82.18;99636.95;108218;1274;22691;-75
2022/01/14 06:54:08;;;;;;;28.30;14.90;;;;;;;0.79;81.84;99632.31;108263;1274;24411;-77
2022/01/14 06:56:38;;;;;;;27.70;13.20;;;;;;;0.77;81.92;99629.23;108239;1274;23179;-76
2022/01/14 06:59:06;;;;;;;29.10;12.40;;;;;;;0.78;81.71;99630.61;108208;1274;24281;-75
2022/01/14 07:01:33;;;;;;;32.20;15.90;;;;;;;0.82;81.82;99625.91;108212;1274;22552;-77
2022/01/14 07:03:59;;;;;;;36.10;15.10;;;;;;;0.85;82.13;99625.03;108227;1274;22532;-78
2022/01/14 07:06:26;;;;;;;27.90;13.90;;;;;;;0.88;82.44;99613.52;108243;1274;25373;-78
2022/01/14 07:08:53;;;;;;;27.00;12.90;;;;;;;0.89;82.59;99617.79;108201;1274;22581;-76
2022/01/14 07:11:25;;;;;;;29.90;14.00;;;;;;;0.86;82.68;99612.34;108219;1274;24361;-77
2022/01/14 07:13:52;;;;;;;24.80;12.80;;;;;;;0.83;82.51;99618.02;108260;1274;23215;-77
2022/01/14 07:16:19;;;;;;;31.40;13.20;;;;;;;0.84;82.13;99613.89;108214;1274;22595;-75
2022/01/14 07:18:48;;;;;;;32.60;15.30;;;;;;;0.84;82.08;99599.48;108235;1274;22556;-75
2022/01/14 07:21:15;;;;;;;37.40;17.20;;;;;;;0.87;82.16;99590.90;108219;1274;22564;-75
2022/01/14 07:23:42;;;;;;;33.20;15.30;;;;;;;0.89;82.60;99588.80;108217;1274;22619;-75
2022/01/14 07:26:09;;;;;;;34.80;16.80;;;;;;;0.93;82.94;99585.33;108222;1274;22607;-75
2022/01/14 07:28:36;;;;;;;32.40;16.10;;;;;;;0.93;83.20;99591.34;108231;1274;25256;-75
2022/01/14 07:31:04;;;;;;;33.70;16.80;;;;;;;0.90;82.96;99594.11;108223;1274;22673;-75
2022/01/14 07:33:31;;;;;;;34.80;16.40;;;;;;;0.89;82.79;99598.26;108241;1274;22560;-76
2022/01/14 07:35:58;;;;;;;32.40;15.70;;;;;;;0.86;82.64;99597.24;108215;1274;22618;-77
2022/01/14 07:38:24;;;;;;;40.00;17.20;;;;;;;0.87;82.63;99596.04;108245;1274;24644;-77
2022/01/14 07:40:51;;;;;;;39.10;18.30;;;;;;;0.91;82.64;99593.58;108218;1274;22717;-77
2022/01/14 07:43:20;;;;;;;38.20;19.50;;;;;;;0.92;83.01;99600.09;108237;1274;22557;-80
2022/01/14 07:45:48;;;;;;;35.10;16.70;;;;;;;0.93;83.07;99602.82;108217;1274;22592;-75
2022/01/14 07:48:15;;;;;;;37.80;18.90;;;;;;;0.96;83.20;99606.91;108213;1274;22560;-76
2022/01/14 07:50:42;;;;;;;35.80;17.70;;;;;;;0.93;83.05;99605.57;108226;1274;24249;-77
2022/01/14 07:53:09;;;;;;;38.30;19.50;;;;;;;0.91;82.79;99612.77;108200;1274;22559;-76
2022/01/14 07:55:36;;;;;;;39.10;19.50;;;;;;;0.90;82.63;99613.48;108220;1274;23150;-76
2022/01/14 07:58:04;;;;;;;44.10;19.70;;;;;;;0.89;82.65;99603.05;108198;1274;24468;-75
2022/01/14 08:00:31;;;;;;;42.50;20.30;;;;;;;0.92;82.67;99579.16;108173;1274;22553;-76
2022/01/14 08:02:59;;;;;;;43.80;20.70;;;;;;;0.92;82.88;99573.67;108209;1274;22725;-76
2022/01/14 08:05:26;;;;;;;41.80;20.60;;;;;;;0.95;83.30;99563.19;108215;1274;22666;-77
2022/01/14 08:07:55;;;;;;;37.30;18.60;;;;;;;0.95;83.48;99561.48;108246;1274;22594;-76
2022/01/14 08:10:23;;;;;;;42.00;20.60;;;;;;;0.95;83.38;99553.41;108234;1274;22561;-75
2022/01/14 08:12:51;;;;;;;44.70;21.80;;;;;;;0.93;83.24;99551.37;108259;1272;22668;-73
2022/01/14 08:15:18;;;;;;;37.50;19.20;;;;;;;0.88;83.11;99553.34;108221;1274;22579;-74
2022/01/14 08:17:45;;;;;;;49.70;23.10;;;;;;;0.91;82.88;99556.02;108229;1274;23044;-76
2022/01/14 08:20:12;;;;;;;46.50;22.30;;;;;;;0.93;83.12;99556.86;108216;1274;22589;-76
2022/01/14 08:22:38;;;;;;;46.30;22.70;;;;;;;0.97;83.28;99555.95;108233;1274;22571;-76
2022/01/14 08:25:09;;;;;;;46.60;20.70;;;;;;;0.96;83.62;99546.90;108210;1274;22583;-76
2022/01/14 08:27:36;;;;;;;35.10;16.90;;;;;;;0.93;83.79;99549.14;108222;1274;22551;-76
2022/01/14 08:30:04;;;;;;;42.70;21.40;;;;;;;0.92;83.47;99552.75;108201;1274;22550;-76
2022/01/14 08:32:32;;;;;;;38.90;19.10;;;;;;;0.92;83.29;99545.38;108229;1274;22559;-78
2022/01/14 08:34:59;;;;;;;48.60;21.10;;;;;;;0.93;83.06;99541.77;108225;1273;22550;-76
2022/01/14 08:37:27;;;;;;;41.20;20.10;;;;;;;0.98;83.01;99535.54;108231;1274;24227;-76
2022/01/14 08:39:55;;;;;;;41.00;20.50;;;;;;;1.02;83.19;99529.82;108186;1273;22559;-77
2022/01/14 08:42:22;;;;;;;34.60;18.50;;;;;;;1.04;83.41;99523.29;108192;1274;22724;-77
2022/01/14 08:44:49;;;;;;;39.90;19.20;;;;;;;1.02;83.29;99518.16;108214;1274;22615;-75
2022/01/14 08:47:16;;;;;;;39.90;19.00;;;;;;;1.01;82.98;99514.56;108212;1274;22557;-76
2022/01/14 08:49:43;;;;;;;34.30;19.10;;;;;;;1.00;82.76;99517.84;108222;1274;22591;-75
2022/01/14 08:52:12;;;;;;;47.70;23.70;;;;;;;0.98;82.65;99517.35;108204;1274;22560;-74
2022/01/14 08:54:40;;;;;;;120.60;46.70;;;;;;;1.01;82.67;99518.17;108261;1274;22579;-74
2022/01/14 08:57:07;;;;;;;53.70;24.20;;;;;;;1.02;82.82;99512.84;108219;1274;22560;-73
2022/01/14 08:59:34;;;;;;;41.80;21.20;;;;;;;1.07;83.01;99506.06;108237;1274;22627;-73
2022/01/14 09:02:01;;;;;;;49.80;28.20;;;;;;;1.04;82.86;99495.67;108249;1274;22552;-74
2022/01/14 09:04:28;;;;;;;41.30;21.10;;;;;;;1.04;82.67;99488.29;108219;1274;25464;-73
2022/01/14 09:06:55;;;;;;;37.20;19.00;;;;;;;1.04;82.43;99493.10;108228;1274;22721;-72
2022/01/14 09:09:22;;;;;;;37.30;18.40;;;;;;;1.05;82.15;99496.66;108223;1274;22578;-72
2022/01/14 09:11:50;;;;;;;29.70;15.80;;;;;;;1.10;82.11;99505.36;108821;1274;25432;-84
2022/01/14 09:14:18;;;;;;;37.20;19.30;;;;;;;1.17;82.23;99509.55;108228;1274;25436;-74
2022/01/14 09:16:45;;;;;;;38.70;20.10;;;;;;;1.17;82.46;99508.88;108252;1274;24517;-72
2022/01/14 09:19:13;;;;;;;42.80;19.40;;;;;;;1.21;82.71;99495.42;108337;1274;22774;-72
2022/01/14 09:21:43;;;;;;;35.60;18.60;;;;;;;1.23;82.41;99491.80;108362;1274;22578;-76
2022/01/14 09:24:10;;;;;;;32.30;17.60;;;;;;;1.28;81.95;99488.98;108437;1274;22629;-73
2022/01/14 09:26:38;;;;;;;32.70;16.50;;;;;;;1.27;81.80;99484.86;108427;1274;22558;-73
2022/01/14 09:29:07;;;;;;;36.10;17.60;;;;;;;1.31;81.94;99485.67;108439;1274;22561;-73
2022/01/14 09:31:35;;;;;;;37.80;19.10;;;;;;;1.37;82.10;99488.15;108444;1274;22648;-74
2022/01/14 09:34:02;;;;;;;28.90;15.80;;;;;;;1.39;82.14;99494.14;108425;1274;22649;-73
2022/01/14 09:36:29;;;;;;;29.60;16.60;;;;;;;1.42;82.29;99489.66;108454;1274;24867;-73
2022/01/14 09:38:57;;;;;;;36.00;19.10;;;;;;;1.43;82.13;99483.63;108433;1274;22560;-73
2022/01/14 09:41:24;;;;;;;31.50;17.80;;;;;;;1.41;82.13;99487.09;108463;1272;22563;-74
2022/01/14 09:43:52;;;;;;;29.50;15.40;;;;;;;1.44;81.85;99489.78;108426;1274;22552;-77
2022/01/14 09:46:18;;;;;;;39.60;18.80;;;;;;;1.46;81.59;99486.98;108439;1274;22622;-76
2022/01/14 09:48:48;;;;;;;36.60;19.00;;;;;;;1.53;81.72;99482.44;108441;1274;22559;-73
2022/01/14 09:51:15;;;;;;;35.50;18.50;;;;;;;1.60;81.81;99482.50;108418;1274;22652;-73
2022/01/14 09:53:42;;;;;;;27.40;15.00;;;;;;;1.64;82.05;99484.33;108439;1274;22545;-75
2022/01/14 09:56:13;;;;;;;34.10;16.50;;;;;;;1.64;82.07;99474.71;108440;1274;23079;-78
2022/01/14 09:58:46;;;;;;;29.50;14.20;;;;;;;1.66;81.97;99470.73;108422;1274;22573;-74
2022/01/14 10:01:17;;;;;;;;;;;;;;;1.69;81.50;99463.81;108445;1274;22523;-75
2022/01/14 10:04:00;;;;;;;47.40;20.70;;;;;;;1.70;81.64;99467.21;108408;1274;24009;-74
2022/01/14 10:06:38;;;;;;;46.10;20.10;;;;;;;1.72;81.48;99470.97;108438;1274;22560;-74
2022/01/14 10:09:09;;;;;;;36.80;18.90;;;;;;;1.80;81.33;99468.60;108438;1274;22614;-74
2022/01/14 10:11:38;;;;;;;29.80;16.30;;;;;;;1.84;81.62;99458.92;108448;1274;22564;-74
2022/01/14 10:14:12;;;;;;;26.60;12.20;;;;;;;1.89;81.85;99456.95;108442;1274;22566;-75
2022/01/14 10:16:41;;;;;;;27.20;13.10;;;;;;;1.90;81.81;99455.04;108451;1274;22525;-77
2022/01/14 10:19:18;;;;;;;27.70;14.30;;;;;;;1.91;81.62;99451.93;108436;1274;22594;-79
2022/01/14 10:21:45;;;;;;;21.40;11.20;;;;;;;1.92;81.39;99450.04;108438;1274;22895;-76
2022/01/14 10:24:12;;;;;;;26.80;12.50;;;;;;;1.94;81.13;99450.69;108415;1274;22568;-74
2022/01/14 10:27:00;;;;;;;25.10;11.30;;;;;;;2.01;81.08;99451.77;108399;1273;22553;-75
2022/01/14 10:29:30;;;;;;;29.10;13.70;;;;;;;2.04;81.36;99450.00;108374;1274;22592;-74
2022/01/14 10:31:58;;;;;;;29.00;14.60;;;;;;;2.05;81.46;99441.91;108232;1274;22550;-71
2022/01/14 10:34:25;;;;;;;24.90;12.00;;;;;;;2.08;81.44;99437.54;108228;1274;22560;-71
2022/01/14 10:37:09;;;;;;;21.70;11.00;;;;;;;2.07;81.20;99429.82;108218;1274;22567;-74
2022/01/14 10:39:43;;;;;;;20.20;9.80;;;;;;;2.09;81.04;99432.38;108238;1274;25541;-73
2022/01/14 10:42:30;;;;;;;24.90;12.70;;;;;;;2.10;80.82;99432.35;108217;1274;22629;-74
2022/01/14 10:45:22;;;;;;;23.10;11.00;;;;;;;2.17;80.89;99427.06;108250;1274;25518;-75
2022/01/14 10:48:11;;;;;;;24.30;12.10;;;;;;;2.20;80.74;99427.18;108572;1274;22633;-72
2022/01/14 10:50:41;;;;;;;22.50;11.60;;;;;;;2.23;80.98;99426.27;108365;1274;23141;-72
2022/01/14 10:53:11;;;;;;;43.50;17.50;;;;;;;2.23;80.99;99417.33;108695;1274;23108;-74
2022/01/14 10:55:43;;;;;;;42.10;21.20;;;;;;;2.24;80.68;99412.31;108258;1274;24825;-74
2022/01/14 10:58:23;;;;;;;32.00;15.90;;;;;;;2.24;80.28;99405.61;108226;1274;22572;-73
2022/01/14 11:00:56;;;;;;;26.80;13.90;;;;;;;2.23;80.19;99405.13;108216;1274;25240;-74
2022/01/14 11:03:35;;;;;;;;;;;;;;;2.24;80.01;99399.27;108224;1274;22554;-74
2022/01/14 11:06:18;;;;;;;24.80;11.60;;;;;;;2.24;80.08;99390.64;108202;1274;22544;-75
2022/01/14 11:08:46;;;;;;;28.80;14.60;;;;;;;2.27;79.95;99386.84;108211;1274;22585;-73
2022/01/14 11:11:14;;;;;;;31.20;14.70;;;;;;;2.30;80.24;99381.80;108199;1274;22643;-76
2022/01/14 11:13:44;;;;;;;30.00;14.10;;;;;;;2.33;80.67;99375.72;108217;1274;22586;-73
2022/01/14 11:16:11;;;;;;;27.50;14.00;;;;;;;2.34;80.36;99377.41;108204;1274;22547;-71
2022/01/14 11:18:39;;;;;;;23.10;12.90;;;;;;;2.34;79.83;99375.17;108176;1274;22567;-73
2022/01/14 11:23:52;;;;;;;27.70;13.00;;;;;;;2.29;79.70;99368.42;108207;1274;22547;-72
2022/01/14 11:26:21;;;;;;;26.00;13.30;;;;;;;2.35;79.69;99357.64;108200;1274;22547;-72
2022/01/14 11:28:48;;;;;;;27.20;13.90;;;;;;;2.33;79.84;99354.05;108195;1274;22578;-73
2022/01/14 11:31:35;;;;;;;31.90;15.40;;;;;;;2.35;80.21;99367.08;108182;1274;22611;-74
2022/01/14 11:34:06;;;;;;;27.80;14.30;;;;;;;2.36;80.22;99366.70;108211;1274;22605;-74
2022/01/14 11:36:58;;;;;;;26.80;14.20;;;;;;;2.37;80.05;99363.60;108203;1274;22571;-71
2022/01/14 11:39:28;;;;;;;34.00;15.30;;;;;;;2.35;79.75;99362.43;108193;1274;22551;-71
2022/01/14 11:41:56;;;;;;;36.50;16.10;;;;;;;2.34;79.51;99363.66;108206;1274;22592;-71
2022/01/14 11:44:42;;;;;;;71.30;23.40;;;;;;;2.32;79.37;99365.26;108225;1274;22770;-73
2022/01/14 11:47:21;;;;;;;63.10;22.40;;;;;;;2.35;79.47;99361.05;108256;1274;22553;-74
2022/01/14 11:49:48;;;;;;;28.80;15.70;;;;;;;2.40;79.48;99357.70;108412;1274;22638;-80
2022/01/14 11:52:35;;;;;;;31.40;16.20;;;;;;;2.41;79.76;99358.90;108546;1274;22553;-78
2022/01/14 11:55:22;;;;;;;115.70;36.30;;;;;;;2.43;80.15;99355.73;108556;1274;22550;-78